Time;durP1;ratioP1;P1;durP2;ratioP2;P2;SDS_P1;SDS_P2;PMS_P1;PMS_P2;Temp;Humidity;BMP_temperature;BMP_pressure;BME280_temperature;BME280_humidity;BME280_pressure;Samples;Min_cycle;Max_cycle;Signal;HPM_P1;HPM_P2
2021/07/24 00:00:07;;;;;;;28.40;13.40;;;17.60;99.90;;;;;;5027064;28;20216;-58
2021/07/24 00:02:33;;;;;;;20.13;13.93;;;17.60;99.90;;;;;;5011881;28;20415;-58
2021/07/24 00:05:01;;;;;;;20.57;13.40;;;17.50;99.90;;;;;;5023761;28;20422;-58
2021/07/24 00:07:30;;;;;;;20.07;13.03;;;17.50;99.90;;;;;;5031431;28;20265;-58
2021/07/24 00:09:55;;;;;;;20.73;13.00;;;17.50;99.90;;;;;;5030832;28;20450;-58
2021/07/24 00:12:21;;;;;;;22.20;14.57;;;17.50;99.90;;;;;;5032167;28;20409;-58
2021/07/24 00:14:49;;;;;;;21.00;12.97;;;17.40;99.90;;;;;;5028892;28;20210;-58
2021/07/24 00:17:15;;;;;;;31.73;13.53;;;17.40;99.90;;;;;;5029670;28;20211;-59
2021/07/24 00:19:41;;;;;;;22.50;12.80;;;17.40;99.90;;;;;;5026646;28;20506;-58
2021/07/24 00:22:06;;;;;;;23.83;14.57;;;17.40;99.90;;;;;;5030075;28;20271;-58
2021/07/24 00:24:32;;;;;;;21.40;14.20;;;17.40;99.90;;;;;;5030508;28;20621;-57
2021/07/24 00:26:58;;;;;;;20.50;13.37;;;17.40;99.90;;;;;;5027359;28;20180;-58
2021/07/24 00:29:23;;;;;;;21.07;13.57;;;17.40;99.90;;;;;;5029071;28;20209;-58
2021/07/24 00:31:52;;;;;;;23.23;13.40;;;17.30;99.90;;;;;;5029092;28;20411;-59
2021/07/24 00:34:18;;;;;;;19.40;12.33;;;17.30;99.90;;;;;;5021849;28;20188;-58
2021/07/24 00:36:44;;;;;;;21.47;12.50;;;17.30;99.90;;;;;;5026731;28;20433;-58
2021/07/24 00:39:10;;;;;;;23.33;13.40;;;17.30;99.90;;;;;;5019755;28;20207;-58
2021/07/24 00:41:45;;;;;;;22.07;14.03;;;17.30;99.90;;;;;;5028791;28;20797;-58
2021/07/24 00:44:15;;;;;;;24.07;13.60;;;17.30;99.90;;;;;;5028223;28;20430;-58
2021/07/24 00:46:42;;;;;;;28.10;13.97;;;17.30;99.90;;;;;;5025173;28;20443;-58
2021/07/24 00:49:10;;;;;;;19.50;13.23;;;17.30;99.90;;;;;;5009956;28;20458;-57
2021/07/24 00:51:45;;;;;;;31.87;11.97;;;17.20;99.90;;;;;;5024307;28;20549;-57
2021/07/24 00:54:11;;;;;;;26.10;14.00;;;17.20;99.90;;;;;;5030450;28;20771;-58
2021/07/24 00:56:42;;;;;;;24.73;13.43;;;17.20;99.90;;;;;;5028806;28;20581;-58
2021/07/24 00:59:08;;;;;;;21.37;12.07;;;17.20;99.90;;;;;;5041334;28;20480;-58
2021/07/24 01:01:36;;;;;;;24.17;12.73;;;17.20;99.90;;;;;;5025185;28;20423;-58
2021/07/24 01:04:02;;;;;;;21.27;12.70;;;17.10;99.90;;;;;;5017692;28;20774;-59
2021/07/24 01:06:28;;;;;;;18.63;12.70;;;17.10;99.90;;;;;;5024451;28;20466;-58
2021/07/24 01:08:53;;;;;;;24.27;13.67;;;17.10;99.90;;;;;;5028468;28;20939;-58
2021/07/24 01:11:19;;;;;;;20.87;12.00;;;17.00;99.90;;;;;;5018481;28;20560;-58
2021/07/24 01:13:45;;;;;;;24.70;13.00;;;17.00;99.90;;;;;;5027424;28;20186;-58
2021/07/24 01:16:13;;;;;;;23.13;13.77;;;17.00;99.90;;;;;;5027311;28;20698;-58
2021/07/24 01:18:42;;;;;;;21.83;12.00;;;17.00;99.90;;;;;;5009295;28;20189;-58
2021/07/24 01:21:09;;;;;;;25.50;13.33;;;16.90;99.90;;;;;;5014416;28;20438;-57
2021/07/24 01:23:36;;;;;;;23.10;13.33;;;16.90;99.90;;;;;;5027337;28;21002;-57
2021/07/24 01:26:02;;;;;;;23.93;13.67;;;16.90;99.90;;;;;;5026332;28;20919;-58
2021/07/24 01:28:31;;;;;;;20.87;13.10;;;16.90;99.90;;;;;;5028629;28;20488;-58
2021/07/24 01:31:02;;;;;;;24.17;14.20;;;16.90;99.90;;;;;;5026147;28;20543;-57
2021/07/24 01:33:29;;;;;;;21.50;13.10;;;16.90;99.90;;;;;;5027148;28;20439;-57
2021/07/24 01:35:54;;;;;;;22.63;13.50;;;16.80;99.90;;;;;;5022538;28;20514;-58
2021/07/24 01:38:21;;;;;;;23.77;14.70;;;16.80;99.90;;;;;;5019809;28;20522;-59
2021/07/24 01:40:48;;;;;;;20.80;12.80;;;16.80;99.90;;;;;;5017467;28;20763;-59
2021/07/24 01:43:16;;;;;;;18.50;12.53;;;16.80;99.90;;;;;;5021254;28;20430;-58
2021/07/24 01:45:43;;;;;;;20.97;14.90;;;16.80;99.90;;;;;;5025570;28;20446;-58
2021/07/24 01:48:15;;;;;;;24.97;13.27;;;16.80;99.90;;;;;;5024198;28;20434;-58
2021/07/24 01:53:27;;;;;;;20.60;13.70;;;16.70;99.90;;;;;;5026563;28;21087;-58
2021/07/24 01:56:04;;;;;;;21.63;12.73;;;16.70;99.90;;;;;;5027088;28;20439;-58
2021/07/24 01:58:34;;;;;;;23.23;13.57;;;16.70;99.90;;;;;;5021715;28;20450;-58
2021/07/24 02:01:01;;;;;;;22.60;13.10;;;16.70;99.90;;;;;;5019787;28;20490;-58
2021/07/24 02:03:45;;;;;;;20.93;12.73;;;16.70;99.90;;;;;;5017071;28;20539;-58
2021/07/24 02:06:13;;;;;;;22.50;13.03;;;16.70;99.90;;;;;;5024080;28;20438;-57
2021/07/24 02:08:42;;;;;;;22.70;12.70;;;16.70;99.90;;;;;;5024454;28;20573;-58
2021/07/24 02:11:10;;;;;;;21.67;12.30;;;16.70;99.90;;;;;;5029036;28;20513;-58
2021/07/24 02:13:36;;;;;;;24.73;13.30;;;16.70;99.90;;;;;;5028698;28;20545;-58
2021/07/24 02:16:04;;;;;;;22.10;12.40;;;16.70;99.90;;;;;;5026583;28;20449;-58
2021/07/24 02:18:30;;;;;;;21.03;12.47;;;16.70;99.90;;;;;;5026403;28;20569;-57
2021/07/24 02:20:56;;;;;;;22.43;12.90;;;16.70;99.90;;;;;;5028140;28;20453;-57
2021/07/24 02:23:24;;;;;;;19.77;13.30;;;16.70;99.90;;;;;;5020069;28;20596;-58
2021/07/24 02:26:13;;;;;;;17.93;12.77;;;16.70;99.90;;;;;;5027683;28;20426;-57
2021/07/24 02:28:39;;;;;;;22.93;13.97;;;16.80;99.90;;;;;;5029086;28;20423;-58
2021/07/24 02:31:05;;;;;;;23.60;13.50;;;16.70;99.90;;;;;;5027314;28;20827;-58
2021/07/24 02:33:31;;;;;;;22.90;12.77;;;16.70;99.90;;;;;;5023433;28;20180;-57
2021/07/24 02:35:57;;;;;;;17.20;12.00;;;16.70;99.90;;;;;;5022135;28;20416;-58
2021/07/24 02:38:23;;;;;;;19.03;12.43;;;16.70;99.90;;;;;;5020232;28;20428;-57
2021/07/24 02:40:48;;;;;;;19.47;11.90;;;16.70;99.90;;;;;;5017025;28;20618;-57
2021/07/24 02:43:14;;;;;;;20.93;13.27;;;16.70;99.90;;;;;;5027704;28;20183;-59
2021/07/24 02:45:40;;;;;;;20.80;12.80;;;16.70;99.90;;;;;;5026714;28;20172;-58
2021/07/24 02:48:06;;;;;;;17.43;11.63;;;16.70;99.90;;;;;;5026910;28;20466;-58
2021/07/24 02:50:31;;;;;;;22.23;12.10;;;16.70;99.90;;;;;;5040036;28;20315;-58
2021/07/24 02:52:57;;;;;;;21.90;12.50;;;16.70;99.90;;;;;;5024766;28;20190;-59
2021/07/24 02:55:25;;;;;;;22.23;12.00;;;16.70;99.90;;;;;;5028571;28;20210;-58
2021/07/24 02:57:54;;;;;;;23.40;14.37;;;16.70;99.90;;;;;;5024833;28;20180;-57
2021/07/24 03:00:19;;;;;;;19.33;12.53;;;16.70;99.90;;;;;;5022043;28;20966;-58
2021/07/24 03:02:45;;;;;;;26.87;14.57;;;16.70;99.90;;;;;;5025701;28;20438;-58
2021/07/24 03:05:11;;;;;;;22.47;13.47;;;16.70;99.90;;;;;;5025361;28;20191;-58
2021/07/24 03:07:40;;;;;;;20.80;13.07;;;16.70;99.90;;;;;;5025607;28;20211;-58
2021/07/24 03:10:06;;;;;;;21.93;13.07;;;16.70;99.90;;;;;;5019093;28;20287;-58
2021/07/24 03:12:31;;;;;;;21.13;12.80;;;16.60;99.90;;;;;;5024847;28;20951;-57
2021/07/24 03:14:57;;;;;;;23.67;13.63;;;16.60;99.90;;;;;;5025993;28;20503;-58
2021/07/24 03:17:26;;;;;;;19.57;13.43;;;16.60;99.90;;;;;;5020861;28;20653;-58
2021/07/24 03:19:52;;;;;;;23.27;13.00;;;16.60;99.90;;;;;;5028978;28;20652;-58
2021/07/24 03:22:18;;;;;;;22.97;13.77;;;16.60;99.90;;;;;;5017984;28;20533;-57
2021/07/24 03:24:44;;;;;;;22.30;13.40;;;16.70;99.90;;;;;;5027262;28;20184;-58
2021/07/24 03:27:09;;;;;;;21.93;12.50;;;16.70;99.90;;;;;;5026129;28;20444;-59
2021/07/24 03:29:35;;;;;;;26.40;13.77;;;16.70;99.90;;;;;;5026147;28;20203;-58
2021/07/24 03:32:00;;;;;;;21.77;13.10;;;16.70;99.90;;;;;;5015840;28;20184;-57
2021/07/24 03:34:26;;;;;;;25.67;13.23;;;16.70;99.90;;;;;;5023211;28;20191;-58
2021/07/24 03:36:52;;;;;;;21.37;12.80;;;16.70;99.90;;;;;;5026650;28;20267;-58
2021/07/24 03:39:17;;;;;;;20.20;13.93;;;16.70;99.90;;;;;;5024728;28;20216;-58
2021/07/24 03:41:43;;;;;;;22.47;14.10;;;16.70;99.90;;;;;;5026155;28;20259;-58
2021/07/24 03:44:09;;;;;;;19.47;11.90;;;16.70;99.90;;;;;;5023893;28;20284;-58
2021/07/24 03:46:34;;;;;;;19.50;12.60;;;16.70;99.90;;;;;;5028227;28;20218;-58
2021/07/24 03:49:03;;;;;;;22.07;13.93;;;16.70;99.90;;;;;;5021129;28;20250;-58
2021/07/24 03:51:28;;;;;;;17.83;12.70;;;16.70;99.90;;;;;;5021111;28;20183;-58
2021/07/24 03:53:54;;;;;;;20.20;13.17;;;16.70;99.90;;;;;;5026337;28;20537;-58
2021/07/24 03:56:21;;;;;;;20.73;13.53;;;16.70;99.90;;;;;;5025016;28;20221;-58
2021/07/24 03:58:49;;;;;;;20.17;13.20;;;16.70;99.90;;;;;;5021112;28;20876;-57
2021/07/24 04:01:19;;;;;;;25.63;14.40;;;16.70;99.90;;;;;;5021316;28;20990;-58
2021/07/24 04:03:45;;;;;;;21.73;13.73;;;16.70;99.90;;;;;;5024294;28;20469;-58
2021/07/24 04:06:29;;;;;;;19.70;13.57;;;16.70;99.90;;;;;;5024819;28;20757;-58
2021/07/24 04:08:57;;;;;;;22.17;14.23;;;16.70;99.90;;;;;;5026293;28;20184;-58
2021/07/24 04:11:24;;;;;;;21.53;13.37;;;16.70;99.90;;;;;;5030694;28;20431;-58
2021/07/24 04:13:50;;;;;;;23.73;13.43;;;16.70;99.90;;;;;;5029967;28;20431;-56
2021/07/24 04:16:16;;;;;;;20.00;12.53;;;16.70;99.90;;;;;;5029050;28;20583;-58
2021/07/24 04:18:42;;;;;;;23.43;13.50;;;16.70;99.90;;;;;;5037455;28;20179;-57
2021/07/24 04:21:07;;;;;;;21.40;12.57;;;16.80;99.90;;;;;;5022892;28;20184;-58
2021/07/24 04:23:33;;;;;;;29.47;13.07;;;16.80;99.90;;;;;;5029026;28;20434;-57
2021/07/24 04:25:59;;;;;;;20.07;12.67;;;16.80;99.90;;;;;;5026583;28;20173;-57
2021/07/24 04:28:24;;;;;;;23.97;14.50;;;16.80;99.90;;;;;;5031558;28;20759;-58
2021/07/24 04:30:50;;;;;;;24.57;13.90;;;16.80;99.90;;;;;;5030264;28;20219;-58
2021/07/24 04:33:16;;;;;;;22.47;14.80;;;16.90;99.90;;;;;;5028120;28;20254;-58
2021/07/24 04:35:46;;;;;;;25.90;14.80;;;16.90;99.90;;;;;;5031094;28;20180;-58
2021/07/24 04:38:13;;;;;;;24.97;14.57;;;16.90;99.90;;;;;;5028439;28;20600;-58
2021/07/24 04:40:39;;;;;;;20.90;14.40;;;17.00;99.90;;;;;;5025426;28;20549;-58
2021/07/24 04:43:04;;;;;;;21.43;13.93;;;17.00;99.90;;;;;;5030597;28;20494;-58
2021/07/24 04:45:30;;;;;;;21.90;14.00;;;17.00;99.90;;;;;;5029832;28;20178;-57
2021/07/24 04:47:55;;;;;;;25.17;13.87;;;17.10;99.90;;;;;;5027609;28;20211;-57
2021/07/24 04:50:22;;;;;;;18.90;13.63;;;17.10;99.90;;;;;;5028384;28;20512;-57
2021/07/24 04:52:48;;;;;;;19.63;13.20;;;17.10;99.90;;;;;;5019932;28;20216;-57
2021/07/24 04:55:13;;;;;;;19.97;13.67;;;17.00;99.90;;;;;;5029264;28;20767;-56
2021/07/24 04:57:40;;;;;;;23.63;13.50;;;17.00;99.90;;;;;;5029246;28;20492;-58
2021/07/24 05:00:07;;;;;;;20.90;13.10;;;17.00;99.90;;;;;;5028795;28;20261;-57
2021/07/24 05:02:34;;;;;;;22.00;13.37;;;17.00;99.90;;;;;;5023319;28;20435;-57
2021/07/24 05:04:59;;;;;;;21.70;13.87;;;17.00;99.90;;;;;;5030243;28;20482;-58
2021/07/24 05:07:27;;;;;;;23.10;13.60;;;17.00;99.90;;;;;;5029990;28;20935;-57
2021/07/24 05:09:53;;;;;;;22.97;13.57;;;17.10;99.90;;;;;;5029753;28;20287;-57
2021/07/24 05:12:18;;;;;;;23.50;13.17;;;17.10;99.90;;;;;;5030019;28;20509;-57
2021/07/24 05:14:44;;;;;;;23.90;14.13;;;17.10;99.90;;;;;;5029727;28;20263;-59
2021/07/24 05:17:13;;;;;;;26.70;14.47;;;17.10;99.90;;;;;;5030257;28;20672;-58
2021/07/24 05:19:40;;;;;;;21.80;13.73;;;17.00;99.90;;;;;;5029588;28;20212;-56
2021/07/24 05:22:07;;;;;;;21.30;13.90;;;17.00;99.90;;;;;;5030128;28;20449;-57
2021/07/24 05:24:34;;;;;;;22.33;13.87;;;17.00;99.90;;;;;;5029099;28;20506;-56
2021/07/24 05:27:01;;;;;;;21.73;14.20;;;17.10;99.90;;;;;;5025554;28;20480;-57
2021/07/24 05:29:26;;;;;;;23.30;14.37;;;17.10;99.90;;;;;;5024748;28;20469;-58
2021/07/24 05:31:52;;;;;;;22.73;13.77;;;17.10;99.90;;;;;;5011184;28;20427;-58
2021/07/24 05:34:18;;;;;;;23.00;14.03;;;17.10;99.90;;;;;;5014663;28;20210;-57
2021/07/24 05:36:44;;;;;;;29.63;13.73;;;17.10;99.90;;;;;;5026715;28;20179;-57
2021/07/24 05:39:10;;;;;;;27.23;13.27;;;17.00;99.90;;;;;;5030251;28;20474;-57
2021/07/24 05:41:35;;;;;;;28.27;14.53;;;16.90;99.90;;;;;;5030327;28;20168;-57
2021/07/24 05:44:01;;;;;;;27.10;15.60;;;16.80;99.90;;;;;;5041443;23;20263;-54
2021/07/24 05:46:27;;;;;;;27.00;14.50;;;16.80;99.90;;;;;;4988994;28;20165;-53
2021/07/24 05:48:53;;;;;;;27.53;15.70;;;16.80;99.90;;;;;;4988567;28;20177;-54
2021/07/24 05:51:19;;;;;;;22.90;14.97;;;16.90;99.90;;;;;;4988708;28;20174;-53
2021/07/24 05:53:44;;;;;;;28.40;16.27;;;17.00;99.90;;;;;;4983922;28;20846;-54
2021/07/24 05:56:12;;;;;;;28.13;15.60;;;17.10;99.90;;;;;;4969280;28;20170;-53
2021/07/24 05:58:38;;;;;;;26.40;15.37;;;17.20;99.90;;;;;;4970934;28;20174;-54
2021/07/24 06:01:11;;;;;;;21.13;14.00;;;17.20;99.90;;;;;;4977493;28;20579;-53
2021/07/24 06:03:37;;;;;;;19.57;12.40;;;17.30;99.90;;;;;;4954364;28;20206;-53
2021/07/24 06:06:03;;;;;;;25.67;13.33;;;17.40;99.90;;;;;;4957368;28;20418;-53
2021/07/24 06:08:29;;;;;;;21.07;14.27;;;17.40;99.90;;;;;;4969660;28;20404;-53
2021/07/24 06:11:01;;;;;;;25.80;13.67;;;17.40;99.90;;;;;;4964464;28;20239;-54
2021/07/24 06:13:27;;;;;;;19.80;13.40;;;17.50;99.90;;;;;;4959466;28;20643;-52
2021/07/24 06:15:53;;;;;;;23.53;13.13;;;17.60;99.90;;;;;;4968987;28;20653;-54
2021/07/24 06:18:19;;;;;;;18.80;12.63;;;17.70;99.90;;;;;;4967641;28;20482;-54
2021/07/24 06:20:47;;;;;;;23.67;13.13;;;17.80;99.90;;;;;;4968974;28;20698;-54
2021/07/24 06:23:13;;;;;;;21.13;13.43;;;17.90;99.90;;;;;;4968790;28;20436;-53
2021/07/24 06:25:39;;;;;;;21.87;12.30;;;17.90;99.90;;;;;;4968300;28;20421;-53
2021/07/24 06:28:04;;;;;;;24.33;14.37;;;18.00;99.90;;;;;;4969412;28;20408;-55
2021/07/24 06:30:30;;;;;;;20.67;12.83;;;18.10;99.90;;;;;;4965743;28;20433;-54
2021/07/24 06:32:56;;;;;;;25.93;13.47;;;18.10;99.90;;;;;;4968115;28;20284;-54
2021/07/24 06:35:21;;;;;;;24.40;12.70;;;18.10;99.90;;;;;;4968323;28;20219;-54
2021/07/24 06:37:47;;;;;;;21.40;12.03;;;18.10;99.90;;;;;;4969269;28;20551;-54
2021/07/24 06:40:13;;;;;;;23.57;13.47;;;18.10;99.90;;;;;;4977998;28;20318;-54
2021/07/24 06:42:39;;;;;;;21.00;13.30;;;18.20;99.90;;;;;;4982097;28;20265;-54
2021/07/24 06:45:05;;;;;;;21.80;13.70;;;18.20;99.90;;;;;;4967349;28;20536;-54
2021/07/24 06:47:31;;;;;;;23.23;13.90;;;18.20;99.90;;;;;;4967727;28;20182;-54
2021/07/24 06:49:56;;;;;;;24.37;13.77;;;18.30;99.90;;;;;;4968637;28;20911;-54
2021/07/24 06:52:22;;;;;;;21.20;14.07;;;18.30;99.90;;;;;;4968348;28;20662;-54
2021/07/24 06:54:48;;;;;;;25.63;15.07;;;18.40;99.90;;;;;;4971084;28;20215;-53
2021/07/24 06:57:14;;;;;;;21.27;13.53;;;18.40;99.90;;;;;;4968829;28;20577;-54
2021/07/24 06:59:39;;;;;;;20.90;13.60;;;18.50;99.90;;;;;;4968036;28;20580;-54
2021/07/24 07:02:06;;;;;;;26.63;12.90;;;18.50;99.90;;;;;;4968295;28;20201;-55
2021/07/24 07:04:32;;;;;;;23.13;13.97;;;18.50;99.90;;;;;;4962189;28;20229;-54
2021/07/24 07:06:58;;;;;;;23.93;14.00;;;18.60;99.90;;;;;;4964282;28;20421;-54
2021/07/24 07:09:23;;;;;;;23.10;14.40;;;18.60;99.90;;;;;;4962357;28;21197;-55
2021/07/24 07:11:49;;;;;;;21.27;14.30;;;18.60;99.90;;;;;;4953111;28;20200;-54
2021/07/24 07:14:14;;;;;;;25.80;14.90;;;18.70;99.90;;;;;;4958256;28;20593;-52
2021/07/24 07:16:40;;;;;;;26.03;16.27;;;18.80;99.90;;;;;;4963414;28;20654;-54
2021/07/24 07:19:08;;;;;;;20.90;14.53;;;18.80;99.90;;;;;;4974086;28;20207;-53
2021/07/24 07:21:34;;;;;;;24.20;15.57;;;18.80;99.90;;;;;;4958077;28;20796;-54
2021/07/24 07:23:59;;;;;;;24.17;15.67;;;18.90;99.90;;;;;;4962304;28;20472;-53
2021/07/24 07:26:28;;;;;;;26.97;15.30;;;18.90;99.90;;;;;;4968825;28;20169;-54
2021/07/24 07:28:55;;;;;;;26.73;15.37;;;19.00;99.90;;;;;;4956640;28;20170;-53
2021/07/24 07:31:21;;;;;;;24.80;15.83;;;19.00;99.90;;;;;;4964964;28;20558;-53
2021/07/24 07:33:47;;;;;;;21.20;13.60;;;19.10;99.90;;;;;;4971266;28;20744;-54
2021/07/24 07:36:13;;;;;;;29.10;15.20;;;19.10;99.90;;;;;;4968431;28;20433;-53
2021/07/24 07:38:39;;;;;;;22.97;14.70;;;19.10;99.90;;;;;;4965508;28;20562;-54
2021/07/24 07:41:05;;;;;;;28.20;15.70;;;19.10;99.90;;;;;;4967273;28;20174;-53
2021/07/24 07:43:30;;;;;;;23.63;15.23;;;19.10;99.90;;;;;;4964902;28;20178;-54
2021/07/24 07:45:56;;;;;;;28.20;15.93;;;19.10;99.90;;;;;;4968258;28;20224;-53
2021/07/24 07:48:22;;;;;;;21.57;13.53;;;19.00;99.90;;;;;;4961104;28;20609;-53
2021/07/24 07:50:48;;;;;;;24.73;14.87;;;19.00;99.90;;;;;;4965489;28;20907;-53
2021/07/24 07:53:14;;;;;;;26.17;14.77;;;19.00;99.90;;;;;;4968698;28;20184;-52
2021/07/24 07:55:41;;;;;;;32.77;15.17;;;19.00;99.90;;;;;;4969098;28;20202;-57
2021/07/24 07:58:14;;;;;;;19.90;13.13;;;19.00;99.90;;;;;;4969349;28;20186;-53
2021/07/24 08:00:40;;;;;;;23.67;14.00;;;19.00;99.90;;;;;;4965539;28;20838;-52
2021/07/24 08:03:06;;;;;;;22.30;13.50;;;19.10;99.90;;;;;;4961902;28;20469;-53
2021/07/24 08:05:32;;;;;;;24.13;14.43;;;19.00;99.90;;;;;;4968286;28;20196;-53
2021/07/24 08:07:58;;;;;;;23.77;14.60;;;19.10;99.90;;;;;;4964059;28;20205;-53
2021/07/24 08:10:24;;;;;;;21.90;13.47;;;19.10;99.90;;;;;;4966697;28;20650;-52
2021/07/24 08:12:50;;;;;;;23.00;14.47;;;19.20;99.90;;;;;;4969768;28;20437;-51
2021/07/24 08:15:16;;;;;;;21.50;14.53;;;19.20;99.90;;;;;;4968119;28;20217;-52
2021/07/24 08:17:42;;;;;;;27.73;14.47;;;19.30;99.90;;;;;;4967442;28;20559;-53
2021/07/24 08:20:09;;;;;;;22.33;14.40;;;19.50;99.90;;;;;;4969236;28;20831;-52
2021/07/24 08:22:35;;;;;;;27.37;16.30;;;19.60;99.90;;;;;;4969372;28;20178;-52
2021/07/24 08:25:02;;;;;;;23.67;15.40;;;19.80;99.90;;;;;;4965603;28;20576;-53
2021/07/24 08:27:27;;;;;;;26.13;15.30;;;20.00;99.90;;;;;;4965464;28;20426;-53
2021/07/24 08:29:53;;;;;;;23.87;15.83;;;20.10;99.90;;;;;;4962609;28;20496;-54
2021/07/24 08:32:20;;;;;;;26.03;15.13;;;20.10;99.90;;;;;;4961329;28;20192;-53
2021/07/24 08:34:52;;;;;;;25.67;14.60;;;20.20;99.90;;;;;;4964633;28;20485;-53
2021/07/24 08:37:19;;;;;;;25.57;14.47;;;20.30;99.90;;;;;;4970856;28;20437;-54
2021/07/24 08:39:45;;;;;;;26.10;16.17;;;20.30;99.90;;;;;;4971513;28;20471;-52
2021/07/24 08:42:27;;;;;;;25.37;15.60;;;20.40;99.90;;;;;;4970973;28;20413;-52
2021/07/24 08:44:52;;;;;;;24.13;15.37;;;20.40;99.90;;;;;;4969454;28;20997;-53
2021/07/24 08:47:18;;;;;;;26.20;17.00;;;20.40;99.90;;;;;;4968444;28;20552;-53
2021/07/24 08:49:44;;;;;;;32.50;17.77;;;20.30;99.90;;;;;;4961475;28;20246;-53
2021/07/24 08:52:15;;;;;;;27.43;17.10;;;20.30;99.90;;;;;;4965113;28;20178;-53
2021/07/24 08:54:42;;;;;;;29.00;17.10;;;20.30;99.90;;;;;;4969707;28;20186;-53
2021/07/24 08:57:07;;;;;;;28.73;17.70;;;20.30;99.90;;;;;;4962773;28;20941;-52
2021/07/24 08:59:36;;;;;;;27.67;18.50;;;20.20;99.90;;;;;;4968903;28;20453;-53
2021/07/24 09:02:04;;;;;;;28.33;18.07;;;20.20;99.90;;;;;;4967417;28;20301;-52
2021/07/24 09:04:31;;;;;;;34.47;18.43;;;20.20;99.90;;;;;;4964991;28;20453;-53
2021/07/24 09:07:04;;;;;;;28.73;17.30;;;20.10;99.90;;;;;;4968714;28;20507;-53
2021/07/24 09:09:31;;;;;;;26.70;17.50;;;20.10;99.90;;;;;;4974130;28;20428;-53
2021/07/24 09:11:56;;;;;;;18.90;12.37;;;20.10;99.90;;;;;;4983213;28;20447;-53
2021/07/24 09:14:22;;;;;;;28.50;13.33;;;20.20;99.90;;;;;;4974783;28;21284;-53
2021/07/24 09:16:50;;;;;;;19.60;12.43;;;20.20;99.90;;;;;;4969813;28;20181;-53
2021/07/24 09:19:17;;;;;;;26.13;13.90;;;20.30;99.90;;;;;;4969737;28;20573;-53
2021/07/24 09:21:43;;;;;;;29.23;15.33;;;20.20;99.90;;;;;;4970517;28;20909;-53
2021/07/24 09:24:20;;;;;;;30.40;15.03;;;20.30;99.90;;;;;;4968400;28;20472;-53
2021/07/24 09:26:46;;;;;;;26.20;15.13;;;20.30;99.90;;;;;;4969868;28;20212;-53
2021/07/24 09:29:17;;;;;;;22.53;13.77;;;20.20;99.90;;;;;;4972041;28;20437;-53
2021/07/24 09:31:44;;;;;;;23.07;14.17;;;20.30;99.90;;;;;;4971014;28;20690;-52
2021/07/24 09:34:11;;;;;;;24.03;14.37;;;20.30;99.90;;;;;;4966593;28;20510;-53
2021/07/24 09:36:38;;;;;;;22.70;15.00;;;20.30;99.90;;;;;;4982131;28;20440;-53
2021/07/24 09:39:17;;;;;;;24.03;15.10;;;20.40;99.90;;;;;;4974723;28;20839;-52
2021/07/24 09:41:48;;;;;;;27.17;15.63;;;20.50;99.90;;;;;;4968785;28;20976;-53
2021/07/24 09:44:30;;;;;;;26.27;15.80;;;20.50;99.90;;;;;;4983872;28;20510;-52
2021/07/24 09:46:57;;;;;;;25.70;15.47;;;20.60;99.90;;;;;;4970365;28;20496;-53
2021/07/24 09:49:35;;;;;;;26.40;15.73;;;20.50;99.90;;;;;;4967776;28;20440;-54
2021/07/24 09:52:17;;;;;;;21.17;14.80;;;20.50;99.90;;;;;;4965483;28;20480;-54
2021/07/24 09:54:43;;;;;;;26.13;14.40;;;20.50;99.90;;;;;;4965466;28;22609;-52
2021/07/24 09:57:29;;;;;;;23.97;15.40;;;20.60;99.90;;;;;;4965086;28;20465;-53
2021/07/24 09:59:54;;;;;;;26.40;16.00;;;20.60;99.90;;;;;;4962819;28;20208;-53
2021/07/24 10:02:30;;;;;;;24.60;15.97;;;20.60;99.90;;;;;;4966873;28;20441;-51
2021/07/24 10:04:56;;;;;;;28.83;15.30;;;20.50;99.90;;;;;;4960593;28;20197;-52
2021/07/24 10:07:25;;;;;;;25.07;15.97;;;20.50;99.90;;;;;;4969380;28;20430;-53
2021/07/24 10:10:00;;;;;;;26.97;15.47;;;20.40;99.90;;;;;;4960467;28;20460;-51
2021/07/24 10:12:28;;;;;;;24.50;15.40;;;20.30;99.90;;;;;;4952581;28;20436;-52
2021/07/24 10:15:05;;;;;;;34.40;16.80;;;20.10;99.90;;;;;;4956123;28;20495;-53
2021/07/24 10:17:34;;;;;;;31.53;17.63;;;20.00;99.90;;;;;;4963539;28;20448;-52
2021/07/24 10:20:03;;;;;;;25.93;14.63;;;19.80;99.90;;;;;;4955790;28;22787;-52
2021/07/24 10:22:29;;;;;;;29.07;16.43;;;19.70;99.90;;;;;;4955248;28;21713;-52
2021/07/24 10:25:03;;;;;;;31.70;15.77;;;19.60;99.90;;;;;;4960253;28;20488;-52
2021/07/24 10:27:34;;;;;;;25.10;15.67;;;19.50;99.90;;;;;;4967735;28;20405;-52
2021/07/24 10:30:06;;;;;;;30.50;17.10;;;19.40;99.90;;;;;;4967664;28;20440;-53
2021/07/24 10:32:36;;;;;;;24.83;15.50;;;19.30;99.90;;;;;;4966664;28;20421;-52
2021/07/24 10:35:03;;;;;;;24.63;14.97;;;19.30;99.90;;;;;;4968145;28;20449;-52
2021/07/24 10:37:32;;;;;;;19.30;13.33;;;19.20;99.90;;;;;;4968832;28;20824;-50
2021/07/24 10:40:25;;;;;;;25.90;14.30;;;19.20;99.90;;;;;;4972911;28;20457;-53
2021/07/24 10:42:57;;;;;;;18.80;12.70;;;19.30;99.90;;;;;;4955769;28;20464;-53
2021/07/24 10:45:45;;;;;;;22.90;13.03;;;19.50;99.90;;;;;;4955571;28;20481;-52
2021/07/24 10:48:13;;;;;;;20.00;13.40;;;19.80;99.90;;;;;;4968623;28;20883;-53
2021/07/24 10:50:54;;;;;;;25.13;13.07;;;20.00;99.90;;;;;;4964566;28;20520;-52
2021/07/24 10:53:24;;;;;;;18.43;12.30;;;20.30;99.90;;;;;;4965540;28;20524;-51
2021/07/24 10:55:51;;;;;;;19.67;13.00;;;20.50;99.90;;;;;;4968004;28;20425;-53
2021/07/24 10:58:25;;;;;;;20.30;11.90;;;20.70;99.90;;;;;;4967589;28;20512;-53
2021/07/24 11:01:08;;;;;;;22.33;12.00;;;20.80;99.90;;;;;;4966995;28;20471;-53
2021/07/24 11:03:41;;;;;;;17.60;10.80;;;20.80;99.90;;;;;;4947985;28;20505;-51
2021/07/24 11:06:42;;;;;;;17.43;10.97;;;20.90;99.90;;;;;;4949497;28;20521;-52
2021/07/24 11:09:15;;;;;;;18.70;11.03;;;21.30;99.90;;;;;;4914354;28;20416;-53
2021/07/24 11:11:41;;;;;;;18.40;12.17;;;21.60;99.90;;;;;;4970682;28;20483;-52
2021/07/24 11:14:08;;;;;;;16.30;10.90;;;21.60;99.90;;;;;;4966241;28;20448;-53
2021/07/24 11:17:25;;;;;;;21.00;12.07;;;21.50;99.40;;;;;;4966918;28;20421;-53
2021/07/24 11:19:50;;;;;;;14.77;10.30;;;21.20;99.30;;;;;;4961342;28;20617;-53
2021/07/24 11:22:20;;;;;;;15.90;9.80;;;20.90;99.90;;;;;;4969923;28;20515;-53
2021/07/24 11:24:54;;;;;;;18.70;11.27;;;20.70;99.90;;;;;;4969054;28;20189;-52
2021/07/24 11:27:32;;;;;;;19.83;10.40;;;20.50;99.90;;;;;;4970994;28;20429;-52
2021/07/24 11:30:04;;;;;;;18.30;11.90;;;20.40;99.90;;;;;;4972076;28;20953;-51
2021/07/24 11:32:53;;;;;;;18.43;12.60;;;20.20;99.90;;;;;;4970868;28;20531;-53
2021/07/24 11:35:30;;;;;;;22.10;11.70;;;20.20;99.90;;;;;;4973442;28;20822;-53
2021/07/24 11:37:57;;;;;;;16.43;11.33;;;20.20;99.90;;;;;;4971586;28;20421;-53
2021/07/24 11:40:28;;;;;;;16.47;12.37;;;20.30;99.90;;;;;;4973289;28;20451;-52
2021/07/24 11:43:00;;;;;;;26.23;12.37;;;20.40;99.90;;;;;;4971509;28;20459;-54
2021/07/24 11:45:28;;;;;;;18.20;10.13;;;20.60;99.90;;;;;;4998955;23;20488;-58
2021/07/24 11:48:15;;;;;;;18.30;11.70;;;20.80;99.90;;;;;;4987846;28;20420;-60
2021/07/24 11:50:48;;;;;;;16.53;10.57;;;21.10;99.90;;;;;;4957548;28;20552;-59
2021/07/24 11:53:28;;;;;;;11.90;9.03;;;21.20;99.90;;;;;;4959426;28;20859;-59
2021/07/24 11:55:54;;;;;;;14.07;9.23;;;21.30;99.90;;;;;;4972526;28;20437;-59
2021/07/24 11:58:20;;;;;;;12.77;10.17;;;21.30;99.90;;;;;;4958516;28;20472;-58
2021/07/24 12:00:50;;;;;;;14.53;9.30;;;21.40;99.90;;;;;;4953859;28;20191;-59
2021/07/24 12:03:24;;;;;;;18.93;10.93;;;21.40;99.90;;;;;;4951758;28;20182;-59
2021/07/24 12:05:52;;;;;;;15.30;9.97;;;21.40;99.90;;;;;;4970409;28;20945;-59
2021/07/24 12:08:25;;;;;;;15.03;9.87;;;21.40;99.90;;;;;;4955394;28;20588;-59
2021/07/24 12:10:54;;;;;;;14.53;9.10;;;21.40;99.90;;;;;;4950760;28;20441;-58
2021/07/24 12:13:24;;;;;;;13.97;9.40;;;21.40;99.90;;;;;;4944848;28;20438;-59
2021/07/24 12:15:59;;;;;;;11.60;8.43;;;21.30;99.90;;;;;;4940684;28;20811;-57
2021/07/24 12:18:26;;;;;;;12.17;9.27;;;21.30;99.90;;;;;;4945829;28;20434;-56
2021/07/24 12:20:55;;;;;;;10.20;8.13;;;21.20;99.20;;;;;;4952197;28;20491;-61
2021/07/24 12:23:22;;;;;;;13.13;8.20;;;21.10;99.90;;;;;;4943990;28;20446;-60
2021/07/24 12:26:14;;;;;;;14.57;8.70;;;21.10;99.90;;;;;;4940127;28;20490;-59
2021/07/24 12:28:41;;;;;;;14.87;9.23;;;21.00;99.90;;;;;;4947086;28;20434;-59
2021/07/24 12:31:33;;;;;;;14.63;8.52;;;21.00;99.90;;;;;;4941762;28;20513;-58
2021/07/24 12:34:16;;;;;;;11.17;7.87;;;21.00;99.60;;;;;;4942228;28;20190;-59
2021/07/24 12:36:54;;;;;;;13.20;8.50;;;21.00;98.80;;;;;;4935716;28;20565;-61